Albany, New York
Traffic Map
Current Weather Conditions
Albany, New York
Clear
Clear
-15°
Feels Like: -15°
Wind Chill: -15° Ceiling: Unl
Heat Index: -15° Visibility: 10mi
Dew Point: -21° Wind: 3mph
Humidity: 63% Direction: 330° (NNW)
Pressure: 30.47in Gusts: 0mph
Raw Report DataKALB 060851Z 33003KT 10SM CLR M15/M21 A3047 RMK AO2 SLP323 T11501206 53007
Traffic Incident Summary
Active as of:
Severity:
Category:
InformationThere was an issue retrieving the traffic information for this location. Please try a different location or try again shortly.
Advertisements
Track Severe Weather on mobile